createdAt,value
2022-08-09T00:00:06.504Z,1.38
2022-08-09T00:02:34.933Z,1.38
2022-08-09T00:06:15.982Z,1.55
2022-08-09T00:07:49.927Z,1.30
2022-08-09T00:10:21.609Z,1.30
2022-08-09T00:12:52.467Z,1.40
2022-08-09T00:15:20.114Z,1.50
2022-08-09T00:18:07.477Z,1.30
2022-08-09T00:20:38.226Z,1.60
2022-08-09T00:23:54.986Z,1.52
2022-08-09T00:25:55.767Z,1.42
2022-08-09T00:28:23.434Z,1.35
2022-08-09T00:30:54.015Z,1.20
2022-08-09T00:33:20.435Z,1.38
2022-08-09T00:36:00.943Z,1.60
2022-08-09T00:38:28.732Z,1.48
2022-08-09T00:40:55.378Z,1.60
2022-08-09T00:44:11.019Z,1.75
2022-08-09T00:46:11.075Z,1.60
2022-08-09T00:48:41.140Z,2.00
2022-08-09T00:51:15.970Z,1.38
2022-08-09T00:53:42.950Z,1.52
2022-08-09T00:56:13.779Z,1.50
2022-08-09T00:58:40.430Z,1.70
2022-08-09T01:01:16.004Z,1.50
2022-08-09T01:03:56.681Z,1.65
2022-08-09T01:06:25.508Z,1.52
2022-08-09T01:09:20.032Z,1.38
2022-08-09T01:12:08.648Z,1.50
2022-08-09T01:14:39.195Z,2.35
2022-08-09T01:17:11.541Z,1.63
2022-08-09T01:20:02.181Z,1.85
2022-08-09T01:22:51.203Z,1.55
2022-08-09T01:25:41.672Z,1.63
2022-08-09T01:28:09.343Z,1.52
2022-08-09T01:30:52.144Z,1.77
2022-08-09T01:33:22.373Z,1.80
2022-08-09T01:35:51.892Z,2.10
2022-08-09T01:38:24.539Z,1.73
2022-08-09T01:41:03.183Z,2.03
2022-08-09T01:43:48.025Z,1.70
2022-08-09T01:46:29.073Z,2.22
2022-08-09T01:49:12.902Z,1.77
2022-08-09T01:51:54.191Z,2.08
2022-08-09T01:54:32.636Z,1.80
2022-08-09T01:57:03.997Z,2.42
2022-08-09T01:59:32.351Z,1.95
2022-08-09T02:02:01.208Z,2.20
2022-08-09T02:04:29.598Z,2.30
2022-08-09T02:07:18.383Z,2.10
2022-08-09T02:09:59.456Z,2.47
2022-08-09T02:12:28.766Z,2.15
2022-08-09T02:14:58.865Z,2.17
2022-08-09T02:18:00.321Z,2.80
2022-08-09T02:20:15.863Z,2.35
2022-08-09T02:22:56.643Z,2.20
2022-08-09T02:25:25.047Z,1.95
2022-08-09T02:28:05.124Z,2.33
2022-08-09T02:30:41.453Z,2.17
2022-08-09T02:33:14.496Z,2.42
2022-08-09T02:36:01.791Z,2.45
2022-08-09T02:38:34.855Z,2.35
2022-08-09T02:41:13.280Z,2.17
2022-08-09T02:43:55.038Z,2.72
2022-08-09T02:46:24.196Z,1.85
2022-08-09T02:48:51.586Z,2.40
2022-08-09T02:51:20.260Z,2.30
2022-08-09T02:53:59.422Z,2.92
2022-08-09T02:56:28.225Z,2.42
2022-08-09T02:58:55.578Z,2.30
2022-08-09T03:01:29.398Z,2.55
2022-08-09T03:04:17.231Z,2.10
2022-08-09T03:06:46.187Z,2.00
2022-08-09T03:09:16.253Z,2.38
2022-08-09T03:12:09.906Z,2.90
2022-08-09T03:14:32.046Z,2.88
2022-08-09T03:17:01.800Z,3.22
2022-08-09T03:19:58.680Z,2.50
2022-08-09T03:22:25.085Z,2.72
2022-08-09T03:25:05.842Z,2.50
2022-08-09T03:27:45.471Z,3.28
2022-08-09T03:30:13.101Z,3.78
2022-08-09T03:32:41.091Z,2.63
2022-08-09T03:35:24.233Z,2.70
2022-08-09T03:37:58.964Z,2.55
2022-08-09T03:40:30.931Z,2.40
2022-08-09T03:42:57.725Z,2.67
2022-08-09T03:46:13.616Z,3.40
2022-08-09T03:48:11.015Z,2.70
2022-08-09T03:50:37.699Z,2.75
2022-08-09T03:53:10.815Z,2.53
2022-08-09T03:55:40.928Z,2.45
2022-08-09T03:58:16.179Z,2.60
2022-08-09T04:00:48.429Z,2.53
2022-08-09T04:03:24.920Z,2.78
2022-08-09T04:06:04.667Z,2.70
2022-08-09T04:08:31.631Z,2.60
2022-08-09T04:11:01.233Z,2.75
2022-08-09T04:13:45.089Z,2.17
2022-08-09T04:16:20.217Z,2.08
2022-08-09T04:18:50.944Z,2.17
2022-08-09T04:21:17.709Z,3.00
2022-08-09T04:23:53.733Z,2.60
2022-08-09T04:26:21.035Z,2.72
2022-08-09T04:28:49.897Z,2.67
2022-08-09T04:31:16.331Z,2.28
2022-08-09T04:33:52.471Z,2.35
2022-08-09T04:36:24.462Z,2.50
2022-08-09T04:38:51.687Z,2.38
2022-08-09T04:41:18.723Z,2.67
2022-08-09T04:43:46.510Z,2.40
2022-08-09T04:46:57.248Z,2.80
2022-08-09T04:49:07.454Z,2.65
2022-08-09T04:51:34.840Z,2.30
2022-08-09T04:54:01.607Z,3.00
2022-08-09T04:56:28.113Z,3.00
2022-08-09T04:58:55.386Z,2.75
2022-08-09T05:01:22.152Z,2.85
2022-08-09T05:03:49.263Z,2.88
2022-08-09T05:06:27.515Z,2.85
2022-08-09T05:09:00.743Z,2.55
2022-08-09T05:11:32.122Z,3.00
2022-08-09T05:13:59.154Z,2.63
2022-08-09T05:16:31.513Z,2.50
2022-08-09T05:19:00.153Z,3.28
2022-08-09T05:21:30.514Z,2.88
2022-08-09T05:24:13.338Z,3.00
2022-08-09T05:26:46.212Z,3.55
2022-08-09T05:29:21.552Z,2.88
2022-08-09T05:31:56.615Z,2.83
2022-08-09T05:34:30.630Z,2.90
2022-08-09T05:37:01.831Z,3.38
2022-08-09T05:39:36.011Z,3.25
2022-08-09T05:42:08.903Z,3.25
2022-08-09T05:44:35.821Z,2.90
2022-08-09T05:47:04.925Z,3.10
2022-08-09T05:50:23.442Z,3.20
2022-08-09T05:52:18.930Z,2.40
2022-08-09T05:54:46.152Z,2.40
2022-08-09T05:57:17.683Z,3.05
2022-08-09T05:59:45.748Z,3.03
2022-08-09T06:02:12.175Z,3.00
2022-08-09T06:04:44.737Z,3.33
2022-08-09T06:07:21.690Z,2.85
2022-08-09T06:10:01.371Z,3.35
2022-08-09T06:12:29.533Z,3.10
2022-08-09T06:15:00.665Z,3.10
2022-08-09T06:17:27.674Z,3.05
2022-08-09T06:20:07.215Z,3.17
2022-08-09T06:22:34.622Z,3.03
2022-08-09T06:25:01.325Z,2.83
2022-08-09T06:27:42.370Z,3.03
2022-08-09T06:30:10.615Z,2.90
2022-08-09T06:33:13.823Z,2.58
2022-08-09T06:35:55.960Z,2.20
2022-08-09T06:38:13.863Z,3.33
2022-08-09T06:40:42.690Z,2.60
2022-08-09T06:43:10.581Z,2.72
2022-08-09T06:46:06.981Z,2.53
2022-08-09T06:48:30.592Z,3.03
2022-08-09T06:50:58.334Z,2.88
2022-08-09T06:53:24.830Z,2.42
2022-08-09T06:55:52.047Z,2.45
2022-08-09T07:00:46.630Z,2.15
2022-08-09T07:01:05.487Z,2.13
2022-08-09T07:03:39.506Z,2.40
2022-08-09T07:06:18.116Z,2.47
2022-08-09T07:08:46.650Z,2.05
2022-08-09T07:11:23.518Z,2.10
2022-08-09T07:14:04.298Z,1.73
2022-08-09T07:16:40.872Z,2.22
2022-08-09T07:19:15.425Z,1.70
2022-08-09T07:21:56.999Z,1.83
2022-08-09T07:24:31.948Z,1.65
2022-08-09T07:27:11.180Z,1.88
2022-08-09T07:29:57.097Z,1.60
2022-08-09T07:32:33.346Z,1.77
2022-08-09T07:35:11.788Z,1.52
2022-08-09T07:37:42.804Z,1.70
2022-08-09T07:40:17.510Z,1.58
2022-08-09T07:42:48.450Z,1.65
2022-08-09T07:45:23.627Z,2.30
2022-08-09T07:48:04.347Z,1.63
2022-08-09T07:50:32.970Z,1.80
2022-08-09T07:53:04.547Z,1.52
2022-08-09T07:55:37.385Z,1.77
2022-08-09T07:58:18.200Z,1.88
2022-08-09T08:00:58.815Z,1.25
2022-08-09T08:03:31.131Z,1.55
2022-08-09T08:05:58.526Z,0.98
2022-08-09T08:09:01.960Z,0.90
2022-08-09T08:12:09.357Z,1.08
2022-08-09T08:13:58.351Z,1.05
2022-08-09T08:16:31.406Z,1.42
2022-08-09T08:18:58.973Z,1.02
2022-08-09T08:21:26.636Z,1.48
2022-08-09T08:23:56.130Z,1.25
2022-08-09T08:26:26.607Z,1.25
2022-08-09T08:29:08.836Z,0.88
2022-08-09T08:32:02.744Z,1.00
2022-08-09T08:34:25.645Z,0.93
2022-08-09T08:36:52.394Z,1.00
2022-08-09T08:39:18.893Z,1.13
2022-08-09T08:41:51.687Z,0.98
2022-08-09T08:44:27.175Z,1.15
2022-08-09T08:46:59.614Z,1.20
2022-08-09T08:49:47.410Z,1.23
2022-08-09T08:55:06.213Z,0.88
2022-08-09T08:57:35.472Z,0.88
2022-08-09T09:00:02.408Z,1.02
2022-08-09T09:02:34.858Z,0.98
2022-08-09T09:05:03.102Z,0.70
2022-08-09T09:07:42.609Z,1.05
2022-08-09T09:10:10.152Z,1.08
2022-08-09T09:12:36.918Z,0.73
2022-08-09T09:15:06.406Z,0.90
2022-08-09T09:17:48.103Z,0.93
2022-08-09T09:20:16.668Z,0.80
2022-08-09T09:22:53.579Z,0.70
2022-08-09T09:26:03.773Z,0.73
2022-08-09T09:29:02.904Z,0.95
2022-08-09T09:32:07.063Z,0.70
2022-08-09T09:34:14.468Z,0.80
2022-08-09T09:36:53.281Z,0.77
2022-08-09T09:39:42.636Z,0.85
2022-08-09T09:42:21.855Z,0.80
2022-08-09T09:44:55.157Z,1.20
2022-08-09T09:47:22.710Z,0.70
2022-08-09T09:50:15.293Z,0.65
2022-08-09T09:52:53.940Z,0.88
2022-08-09T09:55:28.469Z,0.68
2022-08-09T09:58:19.194Z,0.77
2022-08-09T10:00:53.735Z,0.75
2022-08-09T10:03:42.879Z,0.60
2022-08-09T10:06:11.769Z,0.90
2022-08-09T10:08:42.714Z,0.70
2022-08-09T10:11:59.663Z,0.75
2022-08-09T10:14:26.096Z,0.70
2022-08-09T10:16:57.981Z,0.77
2022-08-09T10:19:36.914Z,0.90
2022-08-09T10:22:03.735Z,0.77
2022-08-09T10:24:35.974Z,0.63
2022-08-09T10:27:03.073Z,1.08
2022-08-09T10:30:50.634Z,0.70
2022-08-09T10:32:40.398Z,0.55
2022-08-09T10:35:10.184Z,0.73
2022-08-09T10:37:38.979Z,0.60
2022-08-09T10:40:06.503Z,0.63
2022-08-09T10:42:38.669Z,0.55
2022-08-09T10:45:10.651Z,0.90
2022-08-09T10:48:17.453Z,0.80
2022-08-09T10:50:49.505Z,0.80
2022-08-09T10:53:28.396Z,0.73
2022-08-09T10:56:22.958Z,0.50
2022-08-09T10:58:50.803Z,0.57
2022-08-09T11:03:14.513Z,0.57
2022-08-09T11:04:30.540Z,0.50
2022-08-09T11:07:00.897Z,0.80
2022-08-09T11:09:47.828Z,0.68
2022-08-09T11:12:15.239Z,0.73
2022-08-09T11:14:48.410Z,0.80
2022-08-09T11:17:14.840Z,0.70
2022-08-09T11:20:10.600Z,0.88
2022-08-09T11:22:41.730Z,0.85
2022-08-09T11:25:08.951Z,0.57
2022-08-09T11:28:03.028Z,0.80
2022-08-09T11:30:33.566Z,0.70
2022-08-09T11:33:22.072Z,0.80
2022-08-09T11:36:01.309Z,0.88
2022-08-09T11:38:33.214Z,0.60
2022-08-09T11:41:13.741Z,0.60
2022-08-09T11:43:46.519Z,0.60
2022-08-09T11:46:13.425Z,0.47
2022-08-09T11:48:54.410Z,0.80
2022-08-09T11:53:00.573Z,0.73
2022-08-09T11:54:13.924Z,0.80
2022-08-09T11:56:48.155Z,0.80
2022-08-09T11:59:30.571Z,0.77
2022-08-09T12:02:17.154Z,1.00
2022-08-09T12:04:47.199Z,0.68
2022-08-09T12:07:14.873Z,0.80
2022-08-09T12:09:50.310Z,0.80
2022-08-09T12:12:20.473Z,0.70
2022-08-09T12:15:07.642Z,0.55
2022-08-09T12:17:45.703Z,0.60
2022-08-09T12:20:21.331Z,0.90
2022-08-09T12:22:50.366Z,0.77
2022-08-09T12:25:17.769Z,0.85
2022-08-09T12:29:15.305Z,0.65
2022-08-09T12:30:57.715Z,0.80
2022-08-09T12:33:24.653Z,0.55
2022-08-09T12:36:05.728Z,0.75
2022-08-09T12:38:53.177Z,0.90
2022-08-09T12:41:36.338Z,0.70
2022-08-09T12:44:07.665Z,1.10
2022-08-09T12:46:37.140Z,1.20
2022-08-09T12:49:04.031Z,0.68
2022-08-09T12:51:59.954Z,0.88
2022-08-09T12:54:17.825Z,0.88
2022-08-09T12:56:50.986Z,0.98
2022-08-09T12:59:21.347Z,0.77
2022-08-09T13:02:01.889Z,0.65
2022-08-09T13:04:38.010Z,1.08
2022-08-09T13:07:12.085Z,0.93
2022-08-09T13:09:40.954Z,0.70
2022-08-09T13:12:10.242Z,0.90
2022-08-09T13:14:44.239Z,0.70
2022-08-09T13:17:16.086Z,1.20
2022-08-09T13:20:09.980Z,0.60
2022-08-09T13:23:00.419Z,0.90
2022-08-09T13:25:18.334Z,0.82
2022-08-09T13:27:48.897Z,1.10
2022-08-09T13:30:49.193Z,0.93
2022-08-09T13:33:11.498Z,0.93
2022-08-09T13:36:24.163Z,0.93
2022-08-09T13:38:54.322Z,0.88
2022-08-09T13:41:52.561Z,0.80
2022-08-09T13:43:58.190Z,1.25
2022-08-09T13:47:14.464Z,0.80
2022-08-09T13:49:18.405Z,0.50
2022-08-09T13:52:00.942Z,0.77
2022-08-09T13:54:30.415Z,0.98
2022-08-09T13:56:56.990Z,0.70
2022-08-09T13:59:25.610Z,1.00
2022-08-09T14:02:01.106Z,0.90
2022-08-09T14:04:28.799Z,0.85
2022-08-09T14:06:59.938Z,0.80
2022-08-09T14:09:30.641Z,0.90
2022-08-09T14:12:06.784Z,0.83
2022-08-09T14:14:41.923Z,0.82
2022-08-09T14:17:12.121Z,0.60
2022-08-09T14:19:39.222Z,0.98
2022-08-09T14:22:06.872Z,1.10
2022-08-09T14:24:35.547Z,1.02
2022-08-09T14:27:02.204Z,0.70
2022-08-09T14:30:35.528Z,0.80
2022-08-09T14:32:16.443Z,0.93
2022-08-09T14:34:46.249Z,1.00
2022-08-09T14:37:28.033Z,0.85
2022-08-09T14:39:55.272Z,1.08
2022-08-09T14:42:28.746Z,0.80
2022-08-09T14:45:00.699Z,1.00
2022-08-09T14:47:43.030Z,1.08
2022-08-09T14:50:16.126Z,0.80
2022-08-09T14:52:42.946Z,1.38
2022-08-09T14:55:09.679Z,0.73
2022-08-09T14:57:43.254Z,0.70
2022-08-09T15:00:10.467Z,1.20
2022-08-09T15:02:37.566Z,1.20
2022-08-09T15:05:07.047Z,1.00
2022-08-09T15:07:35.081Z,1.20
2022-08-09T15:10:04.609Z,1.40
2022-08-09T15:12:37.903Z,1.42
2022-08-09T15:15:04.865Z,1.25
2022-08-09T15:17:42.662Z,1.30
2022-08-09T15:21:58.656Z,1.00
2022-08-09T15:23:55.970Z,0.88
2022-08-09T15:25:52.818Z,1.00
2022-08-09T15:28:26.325Z,1.60
2022-08-09T15:31:03.174Z,1.10
2022-08-09T15:36:28.066Z,1.38
2022-08-09T15:38:56.507Z,1.20
2022-08-09T15:41:23.073Z,0.98
2022-08-09T15:43:58.501Z,1.60
2022-08-09T15:46:33.124Z,1.50
2022-08-09T15:49:21.859Z,1.30
2022-08-09T15:52:04.392Z,1.50
2022-08-09T15:54:44.263Z,1.10
2022-08-09T15:57:13.082Z,1.15
2022-08-09T15:59:39.565Z,1.25
2022-08-09T16:02:08.631Z,1.27
2022-08-09T16:04:39.854Z,1.27
2022-08-09T16:07:10.382Z,1.10
2022-08-09T16:09:57.994Z,0.95
2022-08-09T16:12:23.831Z,1.27
2022-08-09T16:14:52.855Z,0.90
2022-08-09T16:17:19.474Z,1.10
2022-08-09T16:20:03.973Z,1.48
2022-08-09T16:22:31.875Z,1.10
2022-08-09T16:24:59.538Z,1.50
2022-08-09T16:27:29.806Z,1.73
2022-08-09T16:30:00.713Z,0.98
2022-08-09T16:32:53.268Z,0.85
2022-08-09T16:35:55.785Z,1.10
2022-08-09T16:38:10.645Z,1.10
2022-08-09T16:40:40.619Z,1.00
2022-08-09T16:43:08.385Z,1.20
2022-08-09T16:45:35.264Z,0.80
2022-08-09T16:48:41.194Z,0.82
2022-08-09T16:50:59.608Z,1.05
2022-08-09T16:53:35.664Z,1.13
2022-08-09T16:56:06.290Z,1.00
2022-08-09T16:58:36.758Z,1.00
2022-08-09T17:01:03.991Z,1.15
2022-08-09T17:03:30.547Z,1.00
2022-08-09T17:06:06.558Z,0.93
2022-08-09T17:08:45.319Z,0.85
2022-08-09T17:11:24.538Z,1.35
2022-08-09T17:14:01.382Z,1.00
2022-08-09T17:16:28.914Z,0.80
2022-08-09T17:18:55.351Z,1.27
2022-08-09T17:21:21.804Z,0.95
2022-08-09T17:24:28.481Z,0.95
2022-08-09T17:26:38.255Z,1.17
2022-08-09T17:29:05.057Z,0.98
2022-08-09T17:31:38.667Z,0.95
2022-08-09T17:34:05.594Z,0.80
2022-08-09T17:36:53.227Z,1.10
2022-08-09T17:39:20.406Z,1.27
2022-08-09T17:41:51.622Z,0.88
2022-08-09T17:44:38.581Z,1.02
2022-08-09T17:47:05.944Z,0.95
2022-08-09T17:49:37.340Z,1.13
2022-08-09T17:52:20.588Z,1.25
2022-08-09T17:54:49.041Z,0.70
2022-08-09T17:57:20.662Z,0.93
2022-08-09T18:00:05.794Z,1.02
2022-08-09T18:02:34.374Z,1.20
2022-08-09T18:05:00.876Z,0.95
2022-08-09T18:07:27.524Z,1.08
2022-08-09T18:10:04.011Z,0.93
2022-08-09T18:12:40.450Z,1.10
2022-08-09T18:15:18.295Z,1.05
2022-08-09T18:18:01.730Z,0.85
2022-08-09T18:20:57.099Z,0.98
2022-08-09T18:24:11.323Z,1.10
2022-08-09T18:26:02.833Z,1.17
2022-08-09T18:30:38.913Z,1.05
2022-08-09T18:31:19.119Z,1.15
2022-08-09T18:33:53.418Z,0.98
2022-08-09T18:36:31.807Z,0.90
2022-08-09T18:39:02.594Z,1.15
2022-08-09T18:41:29.731Z,1.00
2022-08-09T18:44:03.291Z,1.17
2022-08-09T18:46:46.671Z,0.50
2022-08-09T18:49:16.918Z,1.27
2022-08-09T18:51:54.984Z,0.60
2022-08-09T18:54:28.931Z,0.93
2022-08-09T18:56:57.326Z,0.88
2022-08-09T18:59:37.209Z,1.10
2022-08-09T19:02:15.044Z,1.15
2022-08-09T19:04:41.569Z,1.05
2022-08-09T19:07:16.242Z,1.05
2022-08-09T19:10:17.007Z,0.95
2022-08-09T19:12:36.548Z,0.93
2022-08-09T19:15:06.997Z,0.95
2022-08-09T19:17:54.985Z,1.17
2022-08-09T19:20:20.087Z,0.90
2022-08-09T19:22:53.966Z,0.90
2022-08-09T19:25:41.319Z,0.93
2022-08-09T19:28:07.802Z,0.93
2022-08-09T19:30:40.119Z,1.00
2022-08-09T19:33:19.095Z,0.70
2022-08-09T19:35:58.251Z,0.93
2022-08-09T19:38:25.850Z,0.93
2022-08-09T19:40:52.920Z,1.00
2022-08-09T19:44:01.104Z,0.88
2022-08-09T19:46:08.494Z,0.95
2022-08-09T19:49:02.247Z,6.30
2022-08-09T19:51:30.921Z,2.05
2022-08-09T19:53:58.374Z,1.60
2022-08-09T19:56:28.713Z,0.80
2022-08-09T19:59:39.654Z,1.30
2022-08-09T20:02:03.210Z,1.00
2022-08-09T20:04:36.792Z,1.10
2022-08-09T20:07:06.253Z,1.10
2022-08-09T20:09:44.468Z,0.77
2022-08-09T20:12:29.959Z,0.85
2022-08-09T20:15:01.660Z,0.93
2022-08-09T20:17:41.666Z,1.20
2022-08-09T20:20:15.284Z,0.80
2022-08-09T20:22:46.306Z,1.17
2022-08-09T20:25:13.189Z,1.00
2022-08-09T20:27:49.073Z,1.00
2022-08-09T20:30:17.968Z,1.15
2022-08-09T20:32:52.033Z,0.93
2022-08-09T20:35:19.568Z,0.98
2022-08-09T20:38:21.509Z,0.82
2022-08-09T20:40:33.853Z,1.10
2022-08-09T20:43:17.961Z,1.08
2022-08-09T20:46:00.076Z,0.80
2022-08-09T20:48:31.237Z,1.20
2022-08-09T20:50:58.574Z,1.08
2022-08-09T20:53:37.094Z,0.90
2022-08-09T20:56:05.894Z,1.13
2022-08-09T20:58:33.243Z,0.95
2022-08-09T21:01:13.715Z,1.13
2022-08-09T21:05:49.223Z,0.98
2022-08-09T21:06:35.129Z,1.38
2022-08-09T21:09:03.507Z,0.90
2022-08-09T21:14:18.640Z,0.98
2022-08-09T21:16:45.830Z,0.90
2022-08-09T21:20:05.162Z,1.02
2022-08-09T21:21:59.217Z,1.15
2022-08-09T21:24:28.954Z,1.13
2022-08-09T21:27:01.070Z,1.55
2022-08-09T21:29:49.543Z,1.25
2022-08-09T21:32:18.612Z,1.00
2022-08-09T21:34:49.068Z,1.20
2022-08-09T21:37:18.024Z,0.70
2022-08-09T21:39:45.205Z,1.27
2022-08-09T21:42:16.446Z,0.82
2022-08-09T21:44:43.583Z,1.05
2022-08-09T21:47:11.580Z,0.75
2022-08-09T21:49:44.226Z,1.45
2022-08-09T21:52:17.140Z,1.00
2022-08-09T21:55:03.162Z,0.90
2022-08-09T21:57:39.120Z,1.40
2022-08-09T22:00:25.886Z,0.90
2022-08-09T22:02:58.971Z,0.80
2022-08-09T22:05:35.534Z,1.10
2022-08-09T22:08:13.933Z,1.00
2022-08-09T22:11:00.540Z,0.82
2022-08-09T22:13:34.117Z,0.65
2022-08-09T22:16:01.691Z,1.02
2022-08-09T22:18:32.814Z,1.33
2022-08-09T22:20:59.650Z,1.15
2022-08-09T22:23:26.942Z,0.98
2022-08-09T22:26:05.865Z,0.90
2022-08-09T22:28:47.090Z,1.35
2022-08-09T22:31:13.834Z,0.95
2022-08-09T22:33:42.662Z,1.05
2022-08-09T22:36:21.667Z,0.98
2022-08-09T22:38:48.774Z,0.93
2022-08-09T22:41:15.322Z,1.45
2022-08-09T22:44:01.201Z,1.02
2022-08-09T22:48:18.624Z,0.88
2022-08-09T22:49:15.515Z,1.30
2022-08-09T22:51:43.539Z,1.13
2022-08-09T22:54:16.118Z,1.10
2022-08-09T22:56:47.762Z,1.20
2022-08-09T22:59:58.442Z,1.00
2022-08-09T23:02:03.886Z,0.90
2022-08-09T23:04:32.833Z,1.30
2022-08-09T23:07:17.702Z,1.20
2022-08-09T23:10:04.327Z,1.20
2022-08-09T23:12:30.786Z,1.10
2022-08-09T23:14:57.210Z,1.35
2022-08-09T23:17:24.587Z,1.13
2022-08-09T23:20:06.225Z,1.08
2022-08-09T23:22:34.132Z,1.10
2022-08-09T23:25:02.498Z,1.38
2022-08-09T23:27:28.939Z,1.23
2022-08-09T23:29:55.340Z,1.33
2022-08-09T23:32:21.775Z,2.00
2022-08-09T23:34:48.238Z,1.35
2022-08-09T23:37:14.862Z,1.30
2022-08-09T23:39:47.030Z,1.10
2022-08-09T23:42:13.628Z,0.93
2022-08-09T23:44:40.113Z,1.20
2022-08-09T23:47:06.687Z,2.03
2022-08-09T23:49:33.122Z,1.50
2022-08-09T23:51:59.599Z,1.30
2022-08-09T23:54:26.756Z,1.55
2022-08-09T23:56:56.040Z,1.83
2022-08-09T23:59:25.415Z,1.10
